Time;durP1;ratioP1;P1;durP2;ratioP2;P2;SDS_P1;SDS_P2;PMS_P1;PMS_P2;Temp;Humidity;BMP_temperature;BMP_pressure;BME280_temperature;BME280_humidity;BME280_pressure;Samples;Min_cycle;Max_cycle;Signal;HPM_P1;HPM_P2
2022/12/11 00:01:25;;;;;;;15.77;7.07;;;;;;;;;;4938616;29;20052;-74
2022/12/11 00:03:51;;;;;;;12.82;6.68;;;;;;;;;;4938881;29;20035;-73
2022/12/11 00:06:20;;;;;;;15.82;6.65;;;;;;;;;;4954989;29;20050;-74
2022/12/11 00:08:46;;;;;;;15.75;7.82;;;;;;;;;;4933238;28;20047;-73
2022/12/11 00:11:14;;;;;;;16.45;6.80;;;;;;;;;;4932850;29;20490;-74
2022/12/11 00:13:42;;;;;;;15.27;6.57;;;;;;;;;;4934413;29;20048;-74
2022/12/11 00:16:09;;;;;;;15.30;6.68;;;;;;;;;;4932884;29;20040;-74
2022/12/11 00:18:35;;;;;;;26.55;11.27;;;;;;;;;;4935245;29;20031;-75
2022/12/11 00:21:07;;;;;;;22.67;7.80;;;;;;;;;;4935151;29;20574;-74
2022/12/11 00:23:34;;;;;;;19.70;7.45;;;;;;;;;;4930626;29;20106;-74
2022/12/11 00:26:05;;;;;;;20.95;8.57;;;;;;;;;;4934275;29;20035;-75
2022/12/11 00:28:32;;;;;;;12.35;6.65;;;;;;;;;;4948743;29;20335;-74
2022/12/11 00:30:58;;;;;;;20.55;8.25;;;;;;;;;;4934219;29;20039;-75
2022/12/11 00:33:26;;;;;;;19.42;8.63;;;;;;;;;;4948878;28;20052;-74
2022/12/11 00:35:52;;;;;;;13.98;8.23;;;;;;;;;;4933397;29;20510;-75
2022/12/11 00:38:20;;;;;;;15.90;7.90;;;;;;;;;;4935059;29;20052;-75
2022/12/11 00:40:47;;;;;;;19.75;8.85;;;;;;;;;;4937459;29;20028;-73
2022/12/11 00:43:13;;;;;;;20.73;10.43;;;;;;;;;;4934433;29;20038;-74
2022/12/11 00:45:42;;;;;;;19.05;10.50;;;;;;;;;;4932795;29;20059;-74
2022/12/11 00:48:09;;;;;;;24.77;12.43;;;;;;;;;;4925914;29;20044;-75
2022/12/11 00:50:36;;;;;;;21.40;12.90;;;;;;;;;;4933542;29;20114;-74
2022/12/11 00:53:03;;;;;;;27.20;12.48;;;;;;;;;;4934822;29;20055;-73
2022/12/11 00:55:29;;;;;;;18.88;11.25;;;;;;;;;;4934271;29;20034;-73
2022/12/11 00:57:57;;;;;;;19.55;10.20;;;;;;;;;;4933063;29;20023;-75
2022/12/11 01:00:24;;;;;;;21.00;11.13;;;;;;;;;;4944224;29;20049;-74
2022/12/11 01:02:50;;;;;;;26.38;13.70;;;;;;;;;;4925861;29;20507;-74
2022/12/11 01:05:16;;;;;;;28.35;12.70;;;;;;;;;;4933946;29;20091;-75
2022/12/11 01:07:42;;;;;;;26.65;13.57;;;;;;;;;;4933794;29;20048;-75
2022/12/11 01:10:23;;;;;;;22.52;9.45;;;;;;;;;;4916452;29;20031;-75
2022/12/11 01:12:57;;;;;;;12.30;5.55;;;;;;;;;;4932486;29;20035;-75
2022/12/11 01:15:26;;;;;;;9.65;4.45;;;;;;;;;;4929364;29;20063;-75
2022/12/11 01:17:52;;;;;;;10.45;4.20;;;;;;;;;;4943969;29;20032;-75
2022/12/11 01:20:21;;;;;;;8.93;4.03;;;;;;;;;;4930884;29;20060;-75
2022/12/11 01:22:47;;;;;;;8.75;4.15;;;;;;;;;;4929695;29;20048;-75
2022/12/11 01:25:13;;;;;;;8.55;3.28;;;;;;;;;;4933904;29;20050;-73
2022/12/11 01:27:39;;;;;;;6.90;2.60;;;;;;;;;;4933763;29;20039;-74
2022/12/11 01:30:07;;;;;;;6.88;2.50;;;;;;;;;;4932664;29;20035;-74
2022/12/11 01:32:34;;;;;;;5.50;1.90;;;;;;;;;;4934009;29;20031;-75
2022/12/11 01:35:04;;;;;;;8.35;2.15;;;;;;;;;;4933965;29;20031;-74
2022/12/11 01:37:30;;;;;;;5.85;1.88;;;;;;;;;;4931071;29;20063;-73
2022/12/11 01:39:55;;;;;;;7.18;2.00;;;;;;;;;;4930868;29;20106;-74
2022/12/11 01:42:22;;;;;;;3.58;1.83;;;;;;;;;;4933226;29;20106;-74
2022/12/11 01:44:47;;;;;;;6.32;1.30;;;;;;;;;;4929843;29;20038;-74
2022/12/11 01:47:13;;;;;;;3.55;1.55;;;;;;;;;;4932499;29;20043;-75
2022/12/11 01:49:40;;;;;;;3.15;1.27;;;;;;;;;;4933964;29;20493;-74
2022/12/11 01:52:20;;;;;;;2.50;1.30;;;;;;;;;;4933200;29;20043;-73
2022/12/11 01:54:47;;;;;;;2.53;1.20;;;;;;;;;;4933655;29;20036;-74
2022/12/11 01:57:14;;;;;;;2.65;1.10;;;;;;;;;;4934274;29;20036;-74
2022/12/11 01:59:45;;;;;;;4.25;1.40;;;;;;;;;;4932128;29;20464;-74
2022/12/11 02:02:22;;;;;;;2.90;1.30;;;;;;;;;;4934709;29;20119;-74
2022/12/11 02:04:48;;;;;;;2.85;1.20;;;;;;;;;;4932184;29;20052;-74
2022/12/11 02:07:15;;;;;;;3.05;1.23;;;;;;;;;;4937521;29;20081;-74
2022/12/11 02:09:43;;;;;;;6.18;2.20;;;;;;;;;;4934379;28;20024;-74
2022/12/11 02:12:23;;;;;;;7.90;3.35;;;;;;;;;;4936959;29;20024;-74
2022/12/11 02:15:22;;;;;;;9.50;4.72;;;;;;;;;;4933312;29;20502;-74
2022/12/11 02:18:03;;;;;;;8.45;5.43;;;;;;;;;;4936829;29;20107;-74
2022/12/11 02:21:03;;;;;;;3.72;1.80;;;;;;;;;;4937283;29;20087;-73
2022/12/11 02:23:41;;;;;;;3.78;1.80;;;;;;;;;;4937035;29;20050;-74
2022/12/11 02:26:25;;;;;;;9.27;1.90;;;;;;;;;;4937879;29;20122;-74
2022/12/11 02:28:56;;;;;;;5.13;1.70;;;;;;;;;;4932168;29;20118;-74
2022/12/11 02:31:33;;;;;;;4.25;1.85;;;;;;;;;;4937458;29;20087;-75
2022/12/11 02:34:16;;;;;;;5.00;2.35;;;;;;;;;;4935700;29;20046;-74
2022/12/11 02:36:52;;;;;;;6.25;2.67;;;;;;;;;;4938258;29;20375;-74
2022/12/11 02:39:22;;;;;;;5.85;2.40;;;;;;;;;;4936652;29;20067;-74
2022/12/11 02:41:50;;;;;;;5.55;2.63;;;;;;;;;;4936252;29;20067;-74
2022/12/11 02:44:21;;;;;;;4.93;2.60;;;;;;;;;;4931738;29;20545;-74
2022/12/11 02:46:48;;;;;;;7.07;2.20;;;;;;;;;;4936740;29;20067;-74
2022/12/11 02:49:14;;;;;;;6.00;2.03;;;;;;;;;;4935111;29;20571;-75
2022/12/11 02:51:42;;;;;;;6.60;1.83;;;;;;;;;;4937015;29;20110;-74
2022/12/11 02:54:14;;;;;;;3.85;1.90;;;;;;;;;;4936609;29;20099;-74
2022/12/11 02:57:07;;;;;;;4.07;2.00;;;;;;;;;;4939960;29;20043;-74
2022/12/11 02:59:40;;;;;;;3.75;2.17;;;;;;;;;;4936802;29;20146;-74
2022/12/11 03:02:06;;;;;;;7.85;1.75;;;;;;;;;;4936795;29;20099;-74
2022/12/11 03:04:35;;;;;;;7.05;1.90;;;;;;;;;;4936835;29;20091;-74
2022/12/11 03:07:12;;;;;;;4.88;2.17;;;;;;;;;;4936217;29;20047;-74
2022/12/11 03:09:40;;;;;;;5.35;2.00;;;;;;;;;;4936519;29;20028;-74
2022/12/11 03:12:10;;;;;;;5.15;2.00;;;;;;;;;;4935548;29;20027;-74
2022/12/11 03:14:38;;;;;;;4.60;2.17;;;;;;;;;;4936026;29;20051;-74
2022/12/11 03:17:11;;;;;;;4.35;2.13;;;;;;;;;;4950997;29;20043;-74
2022/12/11 03:20:12;;;;;;;6.28;2.00;;;;;;;;;;4935591;29;20097;-73
2022/12/11 03:22:53;;;;;;;18.00;2.33;;;;;;;;;;4936472;29;20055;-74
2022/12/11 03:25:29;;;;;;;5.82;2.78;;;;;;;;;;4934822;29;20132;-74
2022/12/11 03:28:24;;;;;;;5.13;2.05;;;;;;;;;;4934283;29;20040;-74
2022/12/11 03:30:52;;;;;;;6.80;2.45;;;;;;;;;;4933641;29;20569;-73
2022/12/11 03:33:25;;;;;;;5.00;1.90;;;;;;;;;;4936264;29;20061;-73
2022/12/11 03:35:55;;;;;;;4.88;2.20;;;;;;;;;;4934664;29;20046;-73
2022/12/11 03:38:51;;;;;;;4.55;2.20;;;;;;;;;;4930575;29;20043;-73
2022/12/11 03:41:21;;;;;;;5.15;2.25;;;;;;;;;;4932871;29;20032;-74
2022/12/11 03:43:50;;;;;;;7.50;2.45;;;;;;;;;;4936174;29;20036;-73
2022/12/11 03:46:19;;;;;;;9.88;2.72;;;;;;;;;;4928850;29;20040;-73
2022/12/11 03:48:48;;;;;;;8.00;2.50;;;;;;;;;;4927272;29;20075;-74
2022/12/11 03:51:16;;;;;;;4.72;2.15;;;;;;;;;;4925880;29;20386;-74
2022/12/11 03:53:43;;;;;;;6.05;2.47;;;;;;;;;;4931973;29;20106;-74
2022/12/11 03:56:11;;;;;;;4.03;2.30;;;;;;;;;;4928071;29;20040;-75
2022/12/11 03:58:38;;;;;;;4.72;2.45;;;;;;;;;;4924278;29;20063;-73
2022/12/11 04:01:08;;;;;;;8.02;2.55;;;;;;;;;;4924689;29;20038;-74
2022/12/11 04:03:34;;;;;;;3.88;2.67;;;;;;;;;;4928239;29;20063;-74
2022/12/11 04:06:00;;;;;;;5.85;3.83;;;;;;;;;;4926244;29;20043;-74
2022/12/11 04:08:26;;;;;;;4.95;2.90;;;;;;;;;;4924510;29;20044;-73
2022/12/11 04:11:33;;;;;;;8.77;3.60;;;;;;;;;;4924139;29;20031;-74
2022/12/11 04:13:39;;;;;;;6.45;3.65;;;;;;;;;;4925729;29;20039;-73
2022/12/11 04:16:05;;;;;;;10.70;4.90;;;;;;;;;;4923519;29;20953;-74
2022/12/11 04:24:15;;;;;;;8.18;3.58;;;;;;;;;;4924700;29;20066;-73
2022/12/11 04:26:44;;;;;;;9.27;3.90;;;;;;;;;;4925378;29;20620;-73
2022/12/11 04:29:10;;;;;;;14.07;7.10;;;;;;;;;;4926060;29;20052;-74
2022/12/11 04:31:36;;;;;;;8.02;4.95;;;;;;;;;;4925970;29;20039;-73
2022/12/11 04:34:02;;;;;;;6.82;3.75;;;;;;;;;;4926725;29;20028;-74
2022/12/11 04:36:28;;;;;;;10.07;4.97;;;;;;;;;;4925952;29;20472;-74
2022/12/11 04:38:54;;;;;;;10.77;4.93;;;;;;;;;;4928351;28;20028;-73
2022/12/11 04:41:20;;;;;;;7.97;4.00;;;;;;;;;;4923844;29;20047;-74
2022/12/11 04:43:46;;;;;;;8.50;4.90;;;;;;;;;;4923179;29;20048;-73
2022/12/11 04:46:17;;;;;;;10.90;5.00;;;;;;;;;;4921528;29;20166;-74
2022/12/11 04:48:44;;;;;;;11.50;5.28;;;;;;;;;;4939598;29;20039;-75
2022/12/11 04:51:10;;;;;;;9.98;5.60;;;;;;;;;;4925269;29;20397;-75
2022/12/11 04:53:37;;;;;;;8.63;4.57;;;;;;;;;;4923777;29;20411;-74
2022/12/11 04:56:12;;;;;;;7.00;4.10;;;;;;;;;;4924044;29;20058;-74
2022/12/11 04:58:39;;;;;;;6.15;3.75;;;;;;;;;;4924914;29;20047;-73
2022/12/11 05:01:13;;;;;;;9.75;4.45;;;;;;;;;;4920629;28;20036;-73
2022/12/11 05:03:40;;;;;;;7.40;3.55;;;;;;;;;;4935313;28;20063;-74
2022/12/11 05:06:07;;;;;;;11.15;5.53;;;;;;;;;;4923595;29;20046;-73
2022/12/11 05:08:35;;;;;;;13.18;6.60;;;;;;;;;;4925751;28;20063;-73
2022/12/11 05:11:04;;;;;;;8.88;4.90;;;;;;;;;;4925531;29;20039;-73
2022/12/11 05:13:33;;;;;;;10.13;5.20;;;;;;;;;;4924740;29;20489;-74
2022/12/11 05:15:59;;;;;;;8.02;4.68;;;;;;;;;;4923321;29;20055;-74
2022/12/11 05:18:25;;;;;;;6.55;4.38;;;;;;;;;;4927957;29;20126;-74
2022/12/11 05:20:56;;;;;;;7.43;4.50;;;;;;;;;;4925531;29;20114;-75
2022/12/11 05:23:22;;;;;;;9.30;4.90;;;;;;;;;;4923417;29;20088;-74
2022/12/11 05:25:59;;;;;;;6.30;3.97;;;;;;;;;;4923713;29;20043;-75
2022/12/11 05:28:28;;;;;;;6.82;3.75;;;;;;;;;;4923739;29;20382;-74
2022/12/11 05:31:02;;;;;;;6.93;3.72;;;;;;;;;;4924349;29;20118;-75
2022/12/11 05:33:29;;;;;;;7.40;3.40;;;;;;;;;;4925886;29;20110;-73
2022/12/11 05:35:55;;;;;;;8.27;4.00;;;;;;;;;;4921401;29;20410;-74
2022/12/11 05:38:22;;;;;;;8.13;3.38;;;;;;;;;;4924490;29;20065;-74
2022/12/11 05:41:03;;;;;;;9.10;3.90;;;;;;;;;;4923888;29;20036;-74
2022/12/11 05:43:32;;;;;;;12.00;4.45;;;;;;;;;;4921752;29;20051;-74
2022/12/11 05:46:11;;;;;;;8.05;4.18;;;;;;;;;;4924057;29;20031;-73
2022/12/11 05:48:38;;;;;;;9.27;4.10;;;;;;;;;;4928363;29;20118;-73
2022/12/11 05:51:05;;;;;;;7.57;4.90;;;;;;;;;;4933321;29;20036;-74
2022/12/11 05:53:32;;;;;;;9.57;5.18;;;;;;;;;;4932941;29;20031;-73
2022/12/11 05:56:10;;;;;;;10.88;6.07;;;;;;;;;;4949215;28;20051;-74
2022/12/11 05:58:37;;;;;;;12.80;6.82;;;;;;;;;;4934605;29;20040;-74
2022/12/11 06:01:09;;;;;;;8.90;5.28;;;;;;;;;;4934792;29;20028;-73
2022/12/11 06:03:35;;;;;;;9.93;5.25;;;;;;;;;;4933515;29;20067;-73
2022/12/11 06:06:02;;;;;;;9.38;5.57;;;;;;;;;;4931331;29;20106;-73
2022/12/11 06:08:29;;;;;;;8.35;4.60;;;;;;;;;;4934608;29;20028;-73
2022/12/11 06:10:55;;;;;;;7.50;4.53;;;;;;;;;;4934478;29;20020;-73
2022/12/11 06:13:21;;;;;;;8.10;4.88;;;;;;;;;;4931599;29;20524;-73
2022/12/11 06:15:46;;;;;;;7.90;4.68;;;;;;;;;;4934311;29;20111;-73
2022/12/11 06:18:12;;;;;;;10.90;6.25;;;;;;;;;;4934283;29;20402;-75
2022/12/11 06:20:38;;;;;;;11.23;5.93;;;;;;;;;;4933691;29;20058;-74
2022/12/11 06:23:04;;;;;;;11.75;5.97;;;;;;;;;;4945594;29;20102;-76
2022/12/11 06:25:32;;;;;;;11.52;6.25;;;;;;;;;;4934933;29;20039;-76
2022/12/11 06:27:58;;;;;;;17.20;8.75;;;;;;;;;;4933235;29;20072;-75
2022/12/11 06:30:24;;;;;;;16.38;8.63;;;;;;;;;;4933128;29;20083;-76
2022/12/11 06:32:51;;;;;;;14.93;9.30;;;;;;;;;;4928205;29;20569;-77
2022/12/11 06:35:17;;;;;;;18.77;11.60;;;;;;;;;;4915801;29;20040;-77
2022/12/11 06:37:43;;;;;;;15.73;11.40;;;;;;;;;;4915805;29;20131;-76
2022/12/11 06:40:11;;;;;;;16.77;11.63;;;;;;;;;;4915659;29;20032;-75
2022/12/11 06:42:38;;;;;;;21.80;11.40;;;;;;;;;;4916055;29;20040;-76
2022/12/11 06:45:04;;;;;;;18.92;12.60;;;;;;;;;;4930663;29;20180;-73
2022/12/11 06:47:31;;;;;;;20.92;12.23;;;;;;;;;;4919882;29;20032;-75
2022/12/11 06:49:57;;;;;;;16.55;11.60;;;;;;;;;;4920044;29;20043;-74
2022/12/11 06:52:25;;;;;;;21.10;11.88;;;;;;;;;;4919964;29;20032;-74
2022/12/11 06:54:51;;;;;;;18.75;10.20;;;;;;;;;;4928530;29;20036;-73
2022/12/11 06:57:19;;;;;;;10.38;7.10;;;;;;;;;;4938412;29;20050;-75
2022/12/11 06:59:45;;;;;;;10.35;6.60;;;;;;;;;;4947983;29;20035;-74
2022/12/11 07:02:16;;;;;;;9.73;6.05;;;;;;;;;;4937694;29;20331;-76
2022/12/11 07:04:43;;;;;;;12.82;6.53;;;;;;;;;;4937439;29;20072;-75
2022/12/11 07:07:09;;;;;;;10.27;5.60;;;;;;;;;;4937242;28;20035;-75
2022/12/11 07:09:37;;;;;;;9.35;5.70;;;;;;;;;;4937236;29;20136;-75
2022/12/11 07:12:03;;;;;;;10.13;5.57;;;;;;;;;;4933538;29;20032;-74
2022/12/11 07:14:30;;;;;;;12.77;8.13;;;;;;;;;;4936221;29;20118;-75
2022/12/11 07:16:56;;;;;;;8.35;5.28;;;;;;;;;;4937261;29;20043;-74
2022/12/11 07:19:23;;;;;;;11.48;5.97;;;;;;;;;;4934623;29;20517;-75
2022/12/11 07:21:49;;;;;;;11.02;6.85;;;;;;;;;;4936790;29;20146;-75
2022/12/11 07:24:15;;;;;;;9.10;6.15;;;;;;;;;;4936301;29;20027;-75
2022/12/11 07:26:41;;;;;;;9.93;6.63;;;;;;;;;;4937480;28;20712;-75
2022/12/11 07:29:07;;;;;;;10.23;6.03;;;;;;;;;;4935543;29;20031;-76
2022/12/11 07:31:33;;;;;;;10.70;6.82;;;;;;;;;;4935713;29;20141;-77
2022/12/11 07:34:02;;;;;;;13.07;7.88;;;;;;;;;;4934546;29;20042;-77
2022/12/11 07:36:29;;;;;;;11.82;7.00;;;;;;;;;;4935465;29;20028;-76
2022/12/11 07:38:55;;;;;;;13.63;8.95;;;;;;;;;;4933986;29;20039;-78
2022/12/11 07:41:23;;;;;;;16.05;12.50;;;;;;;;;;4936574;29;20182;-77
2022/12/11 07:43:53;;;;;;;12.85;9.68;;;;;;;;;;4934209;29;20106;-77
2022/12/11 07:46:21;;;;;;;14.80;8.50;;;;;;;;;;4933595;29;20063;-75
2022/12/11 07:48:48;;;;;;;16.35;9.88;;;;;;;;;;4936262;29;20031;-77
2022/12/11 07:51:35;;;;;;;20.20;12.15;;;;;;;;;;4936091;28;20438;-77
2022/12/11 07:54:04;;;;;;;27.15;17.02;;;;;;;;;;4933166;28;20481;-78
2022/12/11 07:56:31;;;;;;;17.67;11.57;;;;;;;;;;4933121;29;20110;-77
2022/12/11 07:59:01;;;;;;;19.15;12.00;;;;;;;;;;4946849;29;20035;-74
2022/12/11 08:01:29;;;;;;;17.95;11.50;;;;;;;;;;4935908;29;20034;-77
2022/12/11 08:03:56;;;;;;;19.25;12.02;;;;;;;;;;4932567;29;20126;-78
2022/12/11 08:06:27;;;;;;;20.58;12.80;;;;;;;;;;4935641;29;20039;-77
2022/12/11 08:08:55;;;;;;;20.67;12.85;;;;;;;;;;4934060;29;20513;-76
2022/12/11 08:11:21;;;;;;;20.60;11.85;;;;;;;;;;4933076;29;20034;-75
2022/12/11 08:13:48;;;;;;;19.05;12.70;;;;;;;;;;4933867;29;20036;-75
2022/12/11 08:16:15;;;;;;;19.73;12.55;;;;;;;;;;4934021;29;20039;-74
2022/12/11 08:18:43;;;;;;;15.23;11.68;;;;;;;;;;4934467;29;20032;-74
2022/12/11 08:21:11;;;;;;;19.50;11.88;;;;;;;;;;4935806;29;20023;-75
2022/12/11 08:23:37;;;;;;;15.30;11.38;;;;;;;;;;4933638;29;20070;-73
2022/12/11 08:26:08;;;;;;;17.45;12.98;;;;;;;;;;4950293;29;20044;-74
2022/12/11 08:28:34;;;;;;;18.10;12.43;;;;;;;;;;4932943;29;20039;-74
2022/12/11 08:31:04;;;;;;;22.10;13.05;;;;;;;;;;4934781;29;20040;-74
2022/12/11 08:33:30;;;;;;;16.48;10.82;;;;;;;;;;4933135;29;20032;-75
2022/12/11 08:35:57;;;;;;;13.38;8.88;;;;;;;;;;4931468;29;20031;-75
2022/12/11 08:38:23;;;;;;;12.30;6.68;;;;;;;;;;4928443;29;20176;-74
2022/12/11 08:40:49;;;;;;;10.68;7.32;;;;;;;;;;4921227;29;20040;-73
2022/12/11 08:43:15;;;;;;;12.07;6.78;;;;;;;;;;4928547;29;20067;-73
2022/12/11 08:45:41;;;;;;;13.77;7.43;;;;;;;;;;4929324;29;20039;-74
2022/12/11 08:48:07;;;;;;;11.30;7.07;;;;;;;;;;4932224;29;20152;-77
2022/12/11 08:50:33;;;;;;;11.50;6.30;;;;;;;;;;4940351;29;20482;-76
2022/12/11 08:52:59;;;;;;;10.05;6.40;;;;;;;;;;4927672;29;20044;-75
2022/12/11 08:55:25;;;;;;;13.32;6.57;;;;;;;;;;4924393;29;20126;-76
2022/12/11 08:57:51;;;;;;;10.80;6.72;;;;;;;;;;4929890;29;20040;-77
2022/12/11 09:00:17;;;;;;;10.30;8.35;;;;;;;;;;4931341;29;20034;-78
2022/12/11 09:02:43;;;;;;;16.98;9.77;;;;;;;;;;4930357;29;20107;-76
2022/12/11 09:05:09;;;;;;;28.38;17.67;;;;;;;;;;4923069;29;20036;-75
2022/12/11 09:07:37;;;;;;;21.20;12.02;;;;;;;;;;4928716;29;20513;-76
2022/12/11 09:10:06;;;;;;;15.68;9.45;;;;;;;;;;4932067;28;20036;-78
2022/12/11 09:12:33;;;;;;;16.75;9.38;;;;;;;;;;4930858;29;20122;-73
2022/12/11 09:14:59;;;;;;;11.63;7.82;;;;;;;;;;4929100;29;20048;-76
2022/12/11 09:17:25;;;;;;;13.90;9.02;;;;;;;;;;4922337;29;20040;-76
2022/12/11 09:19:51;;;;;;;17.90;8.50;;;;;;;;;;4931120;29;20039;-75
2022/12/11 09:22:18;;;;;;;20.13;11.55;;;;;;;;;;4929547;29;20087;-75
2022/12/11 09:24:45;;;;;;;15.77;9.50;;;;;;;;;;4931934;29;20040;-76
2022/12/11 09:27:12;;;;;;;14.43;10.48;;;;;;;;;;4933596;29;20038;-77
2022/12/11 09:29:38;;;;;;;27.40;16.05;;;;;;;;;;4928582;29;20032;-77
2022/12/11 09:32:05;;;;;;;37.63;25.65;;;;;;;;;;4926877;29;20031;-75
2022/12/11 09:34:31;;;;;;;41.85;28.33;;;;;;;;;;4928135;29;20071;-74
2022/12/11 09:36:58;;;;;;;38.17;26.02;;;;;;;;;;4923970;29;20028;-74
2022/12/11 09:39:24;;;;;;;37.53;24.17;;;;;;;;;;4930715;29;20103;-76
2022/12/11 09:42:08;;;;;;;32.80;20.60;;;;;;;;;;4929039;29;20035;-76
2022/12/11 09:44:43;;;;;;;23.83;16.42;;;;;;;;;;4932545;29;20122;-75
2022/12/11 09:47:24;;;;;;;20.38;13.30;;;;;;;;;;4923102;29;20126;-74
2022/12/11 09:50:18;;;;;;;17.92;9.05;;;;;;;;;;4929109;29;20389;-73
2022/12/11 09:52:47;;;;;;;;;;;;;;;;;;4921796;29;20040;-77
2022/12/11 09:55:19;;;;;;;13.70;8.02;;;;;;;;;;4925746;29;19915;-77
2022/12/11 09:58:16;;;;;;;10.57;6.10;;;;;;;;;;4929661;29;20042;-76
2022/12/11 10:01:09;;;;;;;9.48;4.97;;;;;;;;;;4930571;29;20425;-79
2022/12/11 10:03:36;;;;;;;11.00;4.90;;;;;;;;;;4926011;29;20047;-77
2022/12/11 10:06:20;;;;;;;14.40;5.25;;;;;;;;;;4930206;29;20376;-78
2022/12/11 10:09:10;;;;;;;7.45;3.80;;;;;;;;;;4941861;29;20446;-74
2022/12/11 10:11:42;;;;;;;11.77;4.20;;;;;;;;;;4928246;29;20087;-78
2022/12/11 10:14:14;;;;;;;19.60;5.32;;;;;;;;;;4929677;29;20126;-78
2022/12/11 10:16:47;;;;;;;12.95;4.05;;;;;;;;;;4929487;29;20023;-77
2022/12/11 10:19:25;;;;;;;;;;;;;;;;;;4926866;29;20379;-76
2022/12/11 10:21:53;;;;;;;10.57;4.57;;;;;;;;;;4933443;29;20365;-75
2022/12/11 10:24:39;;;;;;;11.55;5.25;;;;;;;;;;4932334;29;20046;-76
2022/12/11 10:27:20;;;;;;;12.30;4.70;;;;;;;;;;4929351;29;20509;-74
2022/12/11 10:29:51;;;;;;;8.60;3.85;;;;;;;;;;4930547;29;20043;-74
2022/12/11 10:32:42;;;;;;;18.73;4.80;;;;;;;;;;4933918;29;20417;-73
2022/12/11 10:35:23;;;;;;;26.35;5.80;;;;;;;;;;4930586;29;20036;-73
2022/12/11 10:37:51;;;;;;;18.33;5.93;;;;;;;;;;4933204;29;20068;-76
2022/12/11 10:40:19;;;;;;;14.55;8.93;;;;;;;;;;4936182;29;20039;-72
2022/12/11 10:42:53;;;;;;;18.95;9.10;;;;;;;;;;4935283;29;20392;-75
2022/12/11 10:45:19;;;;;;;18.67;9.35;;;;;;;;;;4933814;29;20028;-74
2022/12/11 10:47:45;;;;;;;12.98;7.32;;;;;;;;;;4936569;29;20152;-74
2022/12/11 10:50:24;;;;;;;16.25;10.25;;;;;;;;;;4946651;28;20055;-74
2022/12/11 10:52:51;;;;;;;19.25;10.90;;;;;;;;;;4932528;29;20114;-73
2022/12/11 10:55:36;;;;;;;22.30;10.82;;;;;;;;;;4935327;28;20032;-71
2022/12/11 10:58:04;;;;;;;17.40;10.38;;;;;;;;;;4934848;29;20481;-73
2022/12/11 11:00:38;;;;;;;16.48;7.90;;;;;;;;;;4934861;29;20031;-73
2022/12/11 11:03:17;;;;;;;17.60;8.57;;;;;;;;;;4934264;28;20038;-73
2022/12/11 11:05:43;;;;;;;13.90;7.20;;;;;;;;;;4931181;29;20042;-72
2022/12/11 11:08:18;;;;;;;16.77;8.90;;;;;;;;;;4933789;29;20040;-76
2022/12/11 11:11:00;;;;;;;18.38;8.85;;;;;;;;;;4936543;29;20051;-73
2022/12/11 11:13:29;;;;;;;19.73;9.40;;;;;;;;;;4934471;29;20032;-74
2022/12/11 11:16:02;;;;;;;15.63;9.02;;;;;;;;;;4931912;29;20058;-74
2022/12/11 11:18:30;;;;;;;17.00;9.18;;;;;;;;;;4934352;29;20068;-73
2022/12/11 11:20:56;;;;;;;15.05;9.27;;;;;;;;;;4929481;29;20249;-75
2022/12/11 11:23:23;;;;;;;21.38;11.25;;;;;;;;;;4928400;29;20067;-75
2022/12/11 11:25:59;;;;;;;21.88;12.70;;;;;;;;;;4930182;29;20043;-75
2022/12/11 11:28:28;;;;;;;21.35;12.10;;;;;;;;;;4930926;29;20108;-75
2022/12/11 11:30:59;;;;;;;23.95;13.10;;;;;;;;;;4929237;29;20449;-73
2022/12/11 11:33:25;;;;;;;25.88;15.10;;;;;;;;;;4929284;29;20040;-72
2022/12/11 11:35:53;;;;;;;19.05;11.82;;;;;;;;;;4929769;29;20055;-78
2022/12/11 11:38:42;;;;;;;17.55;11.23;;;;;;;;;;4926435;29;20067;-73
2022/12/11 11:41:18;;;;;;;18.73;11.98;;;;;;;;;;4933846;29;20110;-75
2022/12/11 11:43:47;;;;;;;17.13;11.20;;;;;;;;;;4929361;29;20417;-76
2022/12/11 11:46:21;;;;;;;19.17;10.85;;;;;;;;;;4930953;29;20040;-72
2022/12/11 11:49:15;;;;;;;22.80;13.80;;;;;;;;;;4932490;29;20118;-72
2022/12/11 11:51:48;;;;;;;25.52;15.75;;;;;;;;;;4932405;29;20031;-72
2022/12/11 11:54:36;;;;;;;20.15;11.55;;;;;;;;;;4928984;29;20040;-73
2022/12/11 11:57:18;;;;;;;18.67;10.23;;;;;;;;;;4931857;29;20039;-74
2022/12/11 11:59:49;;;;;;;21.52;12.77;;;;;;;;;;4931941;29;20167;-71
2022/12/11 12:02:18;;;;;;;20.75;11.68;;;;;;;;;;4931047;29;20584;-76
2022/12/11 12:04:45;;;;;;;19.40;10.50;;;;;;;;;;4927502;29;20043;-74
2022/12/11 12:07:32;;;;;;;16.38;8.88;;;;;;;;;;4946797;28;20031;-73
2022/12/11 12:10:36;;;;;;;19.08;9.85;;;;;;;;;;4928278;29;20032;-73
2022/12/11 12:13:27;;;;;;;16.17;9.65;;;;;;;;;;4904924;29;20386;-73
2022/12/11 12:15:58;;;;;;;19.15;11.63;;;;;;;;;;4905442;29;20036;-74
2022/12/11 12:18:24;;;;;;;18.55;9.73;;;;;;;;;;4916713;29;20048;-72
2022/12/11 12:21:13;;;;;;;13.35;6.95;;;;;;;;;;4922843;29;20095;-73
2022/12/11 12:23:54;;;;;;;12.25;7.55;;;;;;;;;;4929006;29;20052;-73
2022/12/11 12:26:52;;;;;;;13.98;7.45;;;;;;;;;;4925527;29;20490;-73
2022/12/11 12:29:48;;;;;;;12.23;5.70;;;;;;;;;;4911695;29;20123;-73
2022/12/11 12:32:41;;;;;;;15.57;7.63;;;;;;;;;;4918480;29;20056;-73
2022/12/11 12:35:10;;;;;;;16.88;8.20;;;;;;;;;;4910330;29;20131;-72
2022/12/11 12:37:45;;;;;;;17.52;11.25;;;;;;;;;;4915713;29;20513;-73
2022/12/11 12:40:31;;;;;;;42.67;16.98;;;;;;;;;;4913443;29;20044;-74
2022/12/11 12:43:04;;;;;;;20.55;10.90;;;;;;;;;;4915541;29;20048;-74
2022/12/11 12:45:35;;;;;;;13.95;8.75;;;;;;;;;;4915658;29;20054;-73
2022/12/11 12:48:01;;;;;;;18.10;9.65;;;;;;;;;;4915584;29;20539;-73
2022/12/11 12:50:47;;;;;;;22.00;11.00;;;;;;;;;;4914404;29;20151;-72
2022/12/11 12:53:18;;;;;;;18.92;10.98;;;;;;;;;;4914586;29;20044;-73
2022/12/11 12:55:46;;;;;;;46.13;26.90;;;;;;;;;;4915185;29;20116;-73
2022/12/11 12:58:38;;;;;;;41.70;23.90;;;;;;;;;;4915545;29;20040;-73
2022/12/11 13:01:12;;;;;;;27.55;15.02;;;;;;;;;;4913149;29;20071;-72
2022/12/11 13:04:01;;;;;;;12.73;7.47;;;;;;;;;;4929289;29;20043;-73
2022/12/11 13:06:44;;;;;;;12.63;7.40;;;;;;;;;;4922993;29;20466;-73
2022/12/11 13:09:26;;;;;;;11.32;7.50;;;;;;;;;;4934181;29;20122;-73
2022/12/11 13:11:59;;;;;;;21.10;10.68;;;;;;;;;;4924674;29;20047;-72
2022/12/11 13:14:31;;;;;;;16.98;9.80;;;;;;;;;;4934646;29;20055;-73
2022/12/11 13:17:07;;;;;;;16.00;9.55;;;;;;;;;;4943465;29;20099;-73
2022/12/11 13:19:34;;;;;;;17.70;10.98;;;;;;;;;;4937619;28;20032;-73
2022/12/11 13:22:20;;;;;;;18.15;11.68;;;;;;;;;;4931043;29;20054;-73
2022/12/11 13:24:58;;;;;;;28.10;17.38;;;;;;;;;;4948468;29;20039;-73
2022/12/11 13:27:43;;;;;;;20.67;12.90;;;;;;;;;;4932997;29;20126;-73
2022/12/11 13:30:15;;;;;;;19.30;11.07;;;;;;;;;;4934014;29;20477;-73
2022/12/11 13:33:25;;;;;;;16.33;9.40;;;;;;;;;;4923924;29;20036;-73
2022/12/11 13:36:10;;;;;;;13.73;8.57;;;;;;;;;;4929082;29;20058;-73
2022/12/11 13:38:38;;;;;;;11.30;7.20;;;;;;;;;;4931252;29;20060;-74
2022/12/11 13:41:11;;;;;;;12.13;6.50;;;;;;;;;;4948951;29;20521;-73
2022/12/11 13:43:38;;;;;;;10.38;5.93;;;;;;;;;;4934182;29;20044;-73
2022/12/11 13:46:09;;;;;;;11.25;5.13;;;;;;;;;;4935145;29;20115;-73
2022/12/11 13:48:45;;;;;;;7.47;3.88;;;;;;;;;;4932517;29;20031;-73
2022/12/11 13:51:20;;;;;;;8.20;4.20;;;;;;;;;;4924278;28;20032;-73
2022/12/11 13:53:47;;;;;;;6.95;4.30;;;;;;;;;;4934624;29;20578;-73
2022/12/11 13:56:18;;;;;;;8.07;4.75;;;;;;;;;;4931344;29;20042;-74
2022/12/11 13:58:45;;;;;;;8.20;4.60;;;;;;;;;;4931250;29;20035;-73
2022/12/11 14:01:27;;;;;;;10.27;6.45;;;;;;;;;;4932097;29;20036;-74
2022/12/11 14:04:03;;;;;;;7.53;4.47;;;;;;;;;;4932273;29;20032;-74
2022/12/11 14:06:32;;;;;;;6.43;3.72;;;;;;;;;;4932972;29;20566;-73
2022/12/11 14:09:00;;;;;;;9.95;5.05;;;;;;;;;;4930475;29;20048;-74
2022/12/11 14:11:33;;;;;;;7.68;4.60;;;;;;;;;;4933114;29;20118;-73
2022/12/11 14:14:02;;;;;;;4.90;3.13;;;;;;;;;;4926042;29;20118;-73
2022/12/11 14:16:29;;;;;;;8.05;4.18;;;;;;;;;;4931773;29;20132;-72
2022/12/11 14:19:05;;;;;;;6.22;3.22;;;;;;;;;;4929550;29;20035;-74
2022/12/11 14:21:31;;;;;;;8.80;4.50;;;;;;;;;;4928301;29;20040;-73
2022/12/11 14:23:59;;;;;;;10.98;5.65;;;;;;;;;;4920666;29;20833;-74
2022/12/11 14:26:30;;;;;;;9.13;4.90;;;;;;;;;;4921902;29;20047;-74
2022/12/11 14:28:56;;;;;;;8.70;5.45;;;;;;;;;;4922532;29;20045;-73
2022/12/11 14:31:28;;;;;;;10.00;6.07;;;;;;;;;;4930654;29;20040;-74
2022/12/11 14:34:00;;;;;;;10.38;4.90;;;;;;;;;;4940765;29;20098;-73
2022/12/11 14:36:28;;;;;;;7.18;4.22;;;;;;;;;;4925808;29;20036;-72
2022/12/11 14:39:10;;;;;;;6.47;4.25;;;;;;;;;;4932847;29;20039;-73
2022/12/11 14:41:51;;;;;;;5.75;3.45;;;;;;;;;;4933008;29;20489;-74
2022/12/11 14:44:20;;;;;;;6.50;4.55;;;;;;;;;;4931507;29;20106;-74
2022/12/11 14:46:55;;;;;;;8.45;4.78;;;;;;;;;;4934579;29;20042;-73
2022/12/11 14:49:27;;;;;;;7.60;4.80;;;;;;;;;;4931919;29;20047;-73
2022/12/11 14:51:57;;;;;;;6.60;4.57;;;;;;;;;;4932332;29;20558;-74
2022/12/11 14:54:32;;;;;;;8.15;5.30;;;;;;;;;;4935276;29;20407;-74
2022/12/11 14:57:01;;;;;;;10.30;6.82;;;;;;;;;;4948920;29;20048;-73
2022/12/11 14:59:30;;;;;;;13.02;6.25;;;;;;;;;;4934546;29;20107;-72
2022/12/11 15:02:25;;;;;;;16.27;8.38;;;;;;;;;;4934069;29;20136;-74
2022/12/11 15:05:18;;;;;;;15.40;8.77;;;;;;;;;;4934376;29;20516;-74